createdAt,value
2023-01-09T00:00:47.312Z,992.56
2023-01-09T00:01:47.355Z,992.54
2023-01-09T00:02:47.402Z,992.57
2023-01-09T00:03:47.388Z,992.58
2023-01-09T00:04:47.308Z,992.57
2023-01-09T00:05:47.270Z,992.59
2023-01-09T00:06:47.261Z,992.63
2023-01-09T00:07:47.329Z,992.66
2023-01-09T00:08:47.235Z,992.66
2023-01-09T00:09:47.398Z,992.59
2023-01-09T00:10:47.201Z,992.62
2023-01-09T00:11:47.211Z,992.67
2023-01-09T00:12:47.177Z,992.69
2023-01-09T00:13:47.213Z,992.70
2023-01-09T00:14:47.160Z,992.69
2023-01-09T00:15:47.164Z,992.71
2023-01-09T00:16:47.133Z,992.79
2023-01-09T00:17:47.094Z,992.73
2023-01-09T00:18:47.120Z,992.70
2023-01-09T00:19:47.093Z,992.75
2023-01-09T00:20:47.048Z,992.74
2023-01-09T00:21:47.046Z,992.70
2023-01-09T00:22:47.051Z,992.70
2023-01-09T00:23:47.059Z,992.71
2023-01-09T00:24:47.008Z,992.79
2023-01-09T00:25:47.040Z,992.66
2023-01-09T00:26:47.048Z,992.76
2023-01-09T00:27:47.026Z,992.75
2023-01-09T00:28:46.974Z,992.72
2023-01-09T00:29:46.972Z,992.65
2023-01-09T00:30:47.077Z,992.72
2023-01-09T00:31:46.910Z,992.78
2023-01-09T00:32:46.896Z,992.68
2023-01-09T00:33:46.911Z,992.65
2023-01-09T00:34:46.904Z,992.72
2023-01-09T00:35:46.907Z,992.72
2023-01-09T00:36:46.832Z,992.67
2023-01-09T00:37:46.871Z,992.63
2023-01-09T00:38:46.851Z,992.71
2023-01-09T00:39:46.852Z,992.64
2023-01-09T00:40:46.782Z,992.66
2023-01-09T00:41:46.781Z,992.71
2023-01-09T00:42:46.778Z,992.64
2023-01-09T00:43:46.835Z,992.67
2023-01-09T00:44:46.758Z,992.73
2023-01-09T00:45:46.831Z,992.71
2023-01-09T00:46:46.756Z,992.70
2023-01-09T00:47:46.698Z,992.72
2023-01-09T00:48:46.698Z,992.74
2023-01-09T00:49:46.744Z,992.73
2023-01-09T00:50:46.649Z,992.71
2023-01-09T00:51:46.663Z,992.65
2023-01-09T00:52:46.669Z,992.74
2023-01-09T00:53:46.637Z,992.79
2023-01-09T00:54:46.609Z,992.75
2023-01-09T00:55:46.603Z,992.80
2023-01-09T00:56:46.570Z,992.79
2023-01-09T00:57:46.652Z,992.79
2023-01-09T00:58:46.573Z,992.73
2023-01-09T00:59:46.594Z,992.73
2023-01-09T01:00:46.543Z,992.74
2023-01-09T01:01:46.637Z,992.77
2023-01-09T01:02:46.553Z,992.75
2023-01-09T01:03:47.253Z,992.88
2023-01-09T01:04:46.522Z,992.78
2023-01-09T01:05:46.496Z,992.79
2023-01-09T01:06:46.459Z,992.89
2023-01-09T01:07:46.479Z,992.85
2023-01-09T01:08:46.451Z,992.90
2023-01-09T01:09:46.458Z,992.94
2023-01-09T01:10:46.405Z,992.90
2023-01-09T01:11:46.431Z,992.95
2023-01-09T01:12:46.382Z,992.98
2023-01-09T01:13:46.342Z,992.94
2023-01-09T01:14:46.400Z,992.97
2023-01-09T01:15:46.391Z,993.06
2023-01-09T01:16:46.487Z,992.97
2023-01-09T01:17:46.314Z,993.04
2023-01-09T01:18:46.380Z,993.00
2023-01-09T01:19:46.275Z,992.99
2023-01-09T01:20:46.275Z,992.94
2023-01-09T01:21:46.276Z,993.00
2023-01-09T01:22:46.300Z,992.98
2023-01-09T01:23:46.236Z,993.03
2023-01-09T01:24:46.238Z,993.03
2023-01-09T01:25:46.232Z,993.07
2023-01-09T01:26:46.230Z,993.03
2023-01-09T01:27:46.216Z,993.03
2023-01-09T01:28:46.196Z,993.05
2023-01-09T01:29:46.158Z,993.02
2023-01-09T01:30:46.230Z,993.02
2023-01-09T01:31:46.112Z,992.96
2023-01-09T01:32:46.122Z,993.01
2023-01-09T01:33:46.141Z,992.98
2023-01-09T01:34:47.709Z,992.98
2023-01-09T01:35:46.059Z,993.03
2023-01-09T01:36:46.057Z,993.02
2023-01-09T01:37:46.068Z,993.03
2023-01-09T01:38:46.997Z,993.00
2023-01-09T01:39:46.053Z,993.06
2023-01-09T01:40:55.385Z,993.04
2023-01-09T01:41:46.019Z,993.02
2023-01-09T01:42:45.979Z,993.07
2023-01-09T01:43:45.985Z,993.03
2023-01-09T01:44:45.969Z,993.05
2023-01-09T01:45:45.980Z,993.09
2023-01-09T01:46:45.959Z,993.13
2023-01-09T01:47:45.921Z,993.10
2023-01-09T01:48:45.925Z,993.13
2023-01-09T01:49:45.931Z,993.15
2023-01-09T01:50:45.918Z,993.15
2023-01-09T01:51:45.848Z,993.15
2023-01-09T01:52:45.858Z,993.10
2023-01-09T01:53:45.855Z,993.23
2023-01-09T01:54:45.879Z,993.17
2023-01-09T01:55:45.843Z,993.12
2023-01-09T01:56:45.835Z,993.14
2023-01-09T01:57:45.826Z,993.27
2023-01-09T01:58:45.820Z,993.25
2023-01-09T01:59:45.804Z,993.19
2023-01-09T02:00:45.793Z,993.16
2023-01-09T02:01:45.939Z,993.28
2023-01-09T02:02:45.826Z,993.26
2023-01-09T02:03:45.697Z,993.32
2023-01-09T02:04:45.725Z,993.30
2023-01-09T02:05:45.697Z,993.34
2023-01-09T02:06:45.710Z,993.36
2023-01-09T02:07:45.687Z,993.37
2023-01-09T02:08:45.699Z,993.43
2023-01-09T02:09:45.661Z,993.41
2023-01-09T02:10:45.644Z,993.42
2023-01-09T02:11:45.619Z,993.39
2023-01-09T02:12:45.605Z,993.46
2023-01-09T02:13:45.582Z,993.40
2023-01-09T02:14:45.591Z,993.35
2023-01-09T02:15:45.626Z,993.45
2023-01-09T02:16:45.562Z,993.43
2023-01-09T02:17:45.555Z,993.37
2023-01-09T02:18:45.523Z,993.41
2023-01-09T02:19:45.538Z,993.42
2023-01-09T02:20:45.527Z,993.39
2023-01-09T02:21:45.466Z,993.42
2023-01-09T02:22:45.513Z,993.32
2023-01-09T02:23:45.432Z,993.36
2023-01-09T02:24:45.470Z,993.37
2023-01-09T02:25:45.418Z,993.32
2023-01-09T02:26:45.429Z,993.33
2023-01-09T02:27:45.414Z,993.35
2023-01-09T02:28:45.408Z,993.37
2023-01-09T02:29:45.371Z,993.37
2023-01-09T02:30:45.363Z,993.38
2023-01-09T02:31:45.336Z,993.40
2023-01-09T02:32:45.378Z,993.42
2023-01-09T02:33:45.359Z,993.31
2023-01-09T02:34:45.336Z,993.32
2023-01-09T02:35:45.270Z,993.35
2023-01-09T02:36:45.280Z,993.30
2023-01-09T02:37:45.270Z,993.34
2023-01-09T02:38:45.251Z,993.28
2023-01-09T02:39:45.228Z,993.36
2023-01-09T02:40:45.211Z,993.30
2023-01-09T02:41:45.226Z,993.32
2023-01-09T02:42:45.215Z,993.31
2023-01-09T02:43:45.179Z,993.34
2023-01-09T02:44:45.183Z,993.37
2023-01-09T02:45:45.212Z,993.41
2023-01-09T02:46:45.155Z,993.49
2023-01-09T02:47:45.155Z,993.54
2023-01-09T02:48:45.144Z,993.50
2023-01-09T02:49:45.100Z,993.47
2023-01-09T02:50:45.105Z,993.47
2023-01-09T02:51:45.067Z,993.49
2023-01-09T02:52:45.113Z,993.48
2023-01-09T02:53:45.107Z,993.53
2023-01-09T02:54:45.047Z,993.62
2023-01-09T02:55:45.015Z,993.61
2023-01-09T02:56:45.056Z,993.67
2023-01-09T02:57:45.061Z,993.65
2023-01-09T02:58:44.996Z,993.58
2023-01-09T02:59:44.990Z,993.58
2023-01-09T03:00:45.015Z,993.57
2023-01-09T03:01:45.097Z,993.62
2023-01-09T03:02:45.063Z,993.63
2023-01-09T03:03:44.958Z,993.56
2023-01-09T03:04:44.904Z,993.60
2023-01-09T03:05:44.893Z,993.59
2023-01-09T03:06:44.921Z,993.58
2023-01-09T03:07:44.874Z,993.60
2023-01-09T03:08:44.876Z,993.60
2023-01-09T03:09:44.860Z,993.63
2023-01-09T03:10:44.879Z,993.68
2023-01-09T03:11:44.832Z,993.63
2023-01-09T03:12:44.901Z,993.69
2023-01-09T03:13:44.797Z,993.62
2023-01-09T03:14:44.784Z,993.62
2023-01-09T03:15:44.798Z,993.62
2023-01-09T03:16:44.757Z,993.67
2023-01-09T03:17:44.765Z,993.68
2023-01-09T03:18:44.763Z,993.71
2023-01-09T03:19:44.730Z,993.73
2023-01-09T03:20:44.735Z,993.66
2023-01-09T03:21:44.705Z,993.71
2023-01-09T03:22:44.690Z,993.75
2023-01-09T03:23:44.684Z,993.71
2023-01-09T03:24:44.665Z,993.77
2023-01-09T03:25:44.628Z,993.79
2023-01-09T03:26:44.623Z,993.71
2023-01-09T03:27:44.627Z,993.82
2023-01-09T03:28:44.622Z,993.84
2023-01-09T03:29:44.572Z,993.80
2023-01-09T03:30:44.571Z,993.80
2023-01-09T03:31:44.605Z,993.83
2023-01-09T03:32:44.584Z,993.81
2023-01-09T03:33:44.522Z,993.87
2023-01-09T03:34:44.523Z,993.86
2023-01-09T03:35:44.513Z,993.92
2023-01-09T03:36:44.529Z,993.94
2023-01-09T03:37:44.509Z,993.96
2023-01-09T03:38:44.496Z,993.97
2023-01-09T03:39:44.486Z,994.04
2023-01-09T03:40:44.469Z,994.03
2023-01-09T03:41:44.418Z,994.03
2023-01-09T03:42:44.472Z,994.06
2023-01-09T03:43:44.389Z,994.10
2023-01-09T03:44:44.391Z,994.06
2023-01-09T03:45:44.473Z,994.10
2023-01-09T03:46:44.372Z,994.07
2023-01-09T03:47:44.406Z,994.15
2023-01-09T03:48:44.340Z,994.08
2023-01-09T03:49:44.349Z,994.10
2023-01-09T03:50:44.351Z,994.12
2023-01-09T03:51:44.335Z,994.06
2023-01-09T03:52:44.328Z,994.10
2023-01-09T03:53:44.314Z,994.10
2023-01-09T03:54:44.261Z,994.08
2023-01-09T03:55:44.246Z,994.04
2023-01-09T03:56:44.282Z,994.09
2023-01-09T03:57:44.273Z,994.08
2023-01-09T03:58:44.244Z,994.05
2023-01-09T03:59:44.208Z,994.05
2023-01-09T04:00:44.191Z,994.10
2023-01-09T04:01:44.269Z,994.13
2023-01-09T04:02:44.203Z,994.10
2023-01-09T04:03:44.220Z,994.12
2023-01-09T04:04:44.126Z,994.07
2023-01-09T04:05:44.172Z,994.06
2023-01-09T04:06:44.148Z,994.09
2023-01-09T04:07:44.145Z,994.12
2023-01-09T04:08:44.079Z,994.08
2023-01-09T04:09:44.061Z,994.13
2023-01-09T04:10:44.055Z,994.12
2023-01-09T04:11:44.054Z,994.10
2023-01-09T04:12:44.038Z,994.13
2023-01-09T04:13:44.004Z,994.11
2023-01-09T04:14:44.041Z,994.08
2023-01-09T04:15:44.002Z,994.03
2023-01-09T04:16:44.090Z,994.08
2023-01-09T04:17:44.021Z,994.07
2023-01-09T04:18:43.963Z,994.03
2023-01-09T04:19:43.991Z,994.04
2023-01-09T04:20:43.953Z,994.06
2023-01-09T04:21:43.898Z,994.08
2023-01-09T04:22:43.921Z,994.11
2023-01-09T04:23:43.900Z,994.15
2023-01-09T04:24:43.910Z,994.18
2023-01-09T04:25:43.844Z,994.14
2023-01-09T04:26:43.854Z,994.16
2023-01-09T04:27:43.847Z,994.19
2023-01-09T04:28:43.833Z,994.13
2023-01-09T04:29:43.842Z,994.20
2023-01-09T04:30:43.819Z,994.19
2023-01-09T04:31:43.847Z,994.30
2023-01-09T04:32:43.811Z,994.28
2023-01-09T04:33:43.779Z,994.27
2023-01-09T04:34:43.796Z,994.33
2023-01-09T04:35:43.749Z,994.25
2023-01-09T04:36:43.721Z,994.37
2023-01-09T04:37:43.755Z,994.32
2023-01-09T04:38:43.726Z,994.36
2023-01-09T04:39:43.661Z,994.37
2023-01-09T04:40:43.698Z,994.35
2023-01-09T04:41:43.689Z,994.37
2023-01-09T04:42:43.705Z,994.36
2023-01-09T04:43:43.644Z,994.37
2023-01-09T04:44:43.631Z,994.39
2023-01-09T04:45:43.714Z,994.35
2023-01-09T04:46:43.619Z,994.44
2023-01-09T04:47:43.599Z,994.38
2023-01-09T04:48:43.570Z,994.41
2023-01-09T04:49:43.585Z,994.52
2023-01-09T04:50:43.533Z,994.50
2023-01-09T04:51:43.522Z,994.46
2023-01-09T04:52:43.531Z,994.46
2023-01-09T04:53:43.478Z,994.46
2023-01-09T04:54:43.533Z,994.48
2023-01-09T04:55:43.458Z,994.46
2023-01-09T04:56:43.457Z,994.46
2023-01-09T04:57:43.437Z,994.44
2023-01-09T04:58:43.441Z,994.45
2023-01-09T04:59:43.408Z,994.43
2023-01-09T05:00:43.443Z,994.52
2023-01-09T05:01:43.609Z,994.56
2023-01-09T05:02:43.412Z,994.52
2023-01-09T05:03:43.387Z,994.57
2023-01-09T05:04:43.359Z,994.57
2023-01-09T05:05:43.358Z,994.64
2023-01-09T05:06:43.357Z,994.61
2023-01-09T05:07:43.309Z,994.63
2023-01-09T05:08:43.370Z,994.58
2023-01-09T05:09:43.293Z,994.73
2023-01-09T05:10:43.311Z,994.64
2023-01-09T05:11:43.285Z,994.65
2023-01-09T05:12:43.248Z,994.65
2023-01-09T05:13:43.288Z,994.63
2023-01-09T05:14:43.223Z,994.63
2023-01-09T05:15:43.231Z,994.66
2023-01-09T05:16:43.273Z,994.68
2023-01-09T05:17:43.201Z,994.73
2023-01-09T05:18:43.209Z,994.66
2023-01-09T05:19:43.146Z,994.71
2023-01-09T05:20:43.140Z,994.70
2023-01-09T05:21:43.157Z,994.73
2023-01-09T05:22:43.147Z,994.71
2023-01-09T05:23:43.155Z,994.68
2023-01-09T05:24:43.102Z,994.74
2023-01-09T05:25:43.103Z,994.78
2023-01-09T05:26:43.106Z,994.81
2023-01-09T05:27:43.051Z,994.80
2023-01-09T05:28:43.041Z,994.74
2023-01-09T05:29:43.058Z,994.78
2023-01-09T05:30:43.019Z,994.79
2023-01-09T05:31:43.091Z,994.81
2023-01-09T05:32:42.999Z,994.82
2023-01-09T05:33:42.973Z,994.85
2023-01-09T05:34:42.997Z,994.86
2023-01-09T05:35:42.986Z,994.82
2023-01-09T05:36:42.921Z,994.84
2023-01-09T05:37:42.922Z,994.86
2023-01-09T05:38:42.896Z,994.83
2023-01-09T05:39:42.911Z,994.86
2023-01-09T05:40:42.895Z,994.85
2023-01-09T05:41:42.901Z,994.86
2023-01-09T05:42:42.850Z,994.86
2023-01-09T05:43:42.859Z,994.86
2023-01-09T05:44:42.874Z,994.85
2023-01-09T05:45:42.928Z,994.84
2023-01-09T05:46:42.820Z,994.85
2023-01-09T05:47:42.801Z,994.85
2023-01-09T05:48:42.778Z,994.86
2023-01-09T05:49:42.822Z,994.86
2023-01-09T05:50:42.747Z,994.76
2023-01-09T05:51:42.749Z,994.77
2023-01-09T05:52:42.736Z,994.83
2023-01-09T05:53:42.730Z,994.77
2023-01-09T05:54:42.742Z,994.78
2023-01-09T05:55:42.723Z,994.75
2023-01-09T05:56:42.672Z,994.84
2023-01-09T05:57:42.693Z,994.77
2023-01-09T05:58:42.665Z,994.80
2023-01-09T05:59:42.669Z,994.76
2023-01-09T06:00:42.655Z,994.74
2023-01-09T06:01:42.748Z,994.74
2023-01-09T06:02:42.764Z,994.74
2023-01-09T06:03:42.587Z,994.79
2023-01-09T06:04:42.557Z,994.84
2023-01-09T06:05:42.583Z,994.82
2023-01-09T06:06:42.556Z,994.79
2023-01-09T06:07:42.525Z,994.84
2023-01-09T06:08:42.502Z,994.83
2023-01-09T06:09:42.529Z,994.86
2023-01-09T06:10:42.479Z,994.89
2023-01-09T06:11:42.533Z,994.89
2023-01-09T06:12:42.490Z,994.92
2023-01-09T06:13:42.454Z,994.85
2023-01-09T06:14:42.428Z,994.93
2023-01-09T06:15:42.551Z,994.96
2023-01-09T06:16:42.439Z,994.91
2023-01-09T06:17:42.402Z,994.89
2023-01-09T06:18:42.404Z,994.91
2023-01-09T06:19:42.403Z,994.95
2023-01-09T06:20:42.353Z,994.98
2023-01-09T06:21:42.378Z,994.93
2023-01-09T06:22:42.367Z,994.93
2023-01-09T06:23:42.359Z,995.01
2023-01-09T06:24:42.347Z,994.89
2023-01-09T06:25:42.328Z,994.94
2023-01-09T06:26:42.305Z,994.93
2023-01-09T06:27:42.291Z,994.88
2023-01-09T06:28:44.544Z,994.99
2023-01-09T06:29:42.302Z,994.94
2023-01-09T06:30:42.245Z,994.90
2023-01-09T06:31:42.221Z,994.99
2023-01-09T06:32:42.239Z,994.93
2023-01-09T06:33:42.238Z,994.92
2023-01-09T06:34:42.194Z,994.96
2023-01-09T06:35:42.195Z,995.00
2023-01-09T06:36:42.174Z,994.97
2023-01-09T06:37:42.159Z,994.95
2023-01-09T06:38:42.153Z,994.95
2023-01-09T06:39:42.136Z,994.98
2023-01-09T06:40:42.157Z,995.00
2023-01-09T06:41:42.130Z,995.07
2023-01-09T06:42:42.067Z,995.11
2023-01-09T06:43:42.099Z,995.07
2023-01-09T06:44:42.076Z,995.06
2023-01-09T06:45:42.137Z,995.13
2023-01-09T06:46:42.034Z,995.16
2023-01-09T06:47:42.036Z,995.05
2023-01-09T06:48:42.040Z,995.14
2023-01-09T06:49:41.997Z,995.02
2023-01-09T06:50:41.999Z,995.03
2023-01-09T06:51:41.985Z,995.04
2023-01-09T06:52:41.961Z,995.04
2023-01-09T06:53:41.942Z,995.05
2023-01-09T06:54:41.944Z,995.12
2023-01-09T06:55:41.929Z,995.06
2023-01-09T06:56:41.887Z,995.02
2023-01-09T06:57:41.884Z,995.07
2023-01-09T06:58:41.865Z,995.00
2023-01-09T06:59:41.875Z,995.00
2023-01-09T07:00:41.853Z,995.04
2023-01-09T07:01:41.996Z,995.02
2023-01-09T07:02:41.833Z,995.02
2023-01-09T07:03:41.910Z,995.03
2023-01-09T07:04:41.803Z,995.06
2023-01-09T07:05:41.797Z,995.08
2023-01-09T07:06:41.812Z,995.00
2023-01-09T07:07:41.781Z,995.01
2023-01-09T07:08:41.760Z,995.05
2023-01-09T07:09:41.739Z,995.05
2023-01-09T07:10:41.740Z,995.03
2023-01-09T07:11:41.755Z,995.02
2023-01-09T07:12:41.674Z,994.97
2023-01-09T07:13:41.700Z,995.00
2023-01-09T07:14:41.700Z,994.98
2023-01-09T07:15:41.719Z,995.02
2023-01-09T07:16:41.667Z,994.96
2023-01-09T07:17:41.686Z,995.00
2023-01-09T07:18:41.628Z,994.97
2023-01-09T07:19:41.666Z,995.00
2023-01-09T07:20:41.603Z,995.00
2023-01-09T07:21:41.611Z,994.98
2023-01-09T07:22:41.549Z,994.99
2023-01-09T07:23:41.560Z,995.00
2023-01-09T07:24:41.581Z,995.03
2023-01-09T07:25:41.520Z,995.05
2023-01-09T07:26:43.347Z,995.09
2023-01-09T07:27:41.517Z,994.98
2023-01-09T07:28:41.487Z,995.07
2023-01-09T07:29:41.472Z,995.09
2023-01-09T07:30:41.446Z,995.08
2023-01-09T07:31:41.503Z,994.99
2023-01-09T07:32:41.422Z,995.08
2023-01-09T07:33:41.420Z,995.00
2023-01-09T07:34:41.400Z,995.07
2023-01-09T07:35:41.399Z,995.07
2023-01-09T07:36:41.385Z,995.01
2023-01-09T07:37:41.412Z,995.08
2023-01-09T07:38:41.370Z,995.06
2023-01-09T07:39:41.376Z,995.07
2023-01-09T07:40:41.368Z,995.11
2023-01-09T07:41:41.309Z,995.02
2023-01-09T07:42:41.308Z,995.07
2023-01-09T07:43:41.328Z,995.12
2023-01-09T07:44:41.281Z,995.16
2023-01-09T07:45:41.264Z,995.17
2023-01-09T07:46:41.322Z,995.14
2023-01-09T07:47:41.241Z,995.13
2023-01-09T07:48:41.237Z,995.20
2023-01-09T07:49:41.257Z,995.15
2023-01-09T07:50:41.207Z,995.19
2023-01-09T07:51:41.215Z,995.20
2023-01-09T07:52:41.159Z,995.20
2023-01-09T07:53:41.211Z,995.25
2023-01-09T07:54:41.145Z,995.24
2023-01-09T07:55:41.167Z,995.27
2023-01-09T07:56:41.141Z,995.31
2023-01-09T07:57:41.132Z,995.29
2023-01-09T07:58:41.111Z,995.31
2023-01-09T07:59:41.122Z,995.31
2023-01-09T08:00:41.073Z,995.33
2023-01-09T08:01:41.240Z,995.38
2023-01-09T08:02:41.078Z,995.41
2023-01-09T08:03:41.031Z,995.43
2023-01-09T08:04:41.023Z,995.43
2023-01-09T08:05:41.006Z,995.40
2023-01-09T08:06:41.010Z,995.42
2023-01-09T08:07:41.010Z,995.49
2023-01-09T08:08:40.954Z,995.51
2023-01-09T08:09:40.948Z,995.51
2023-01-09T08:10:40.931Z,995.49
2023-01-09T08:11:40.968Z,995.55
2023-01-09T08:12:40.942Z,995.61
2023-01-09T08:13:40.927Z,995.56
2023-01-09T08:14:40.890Z,995.53
2023-01-09T08:15:40.957Z,995.56
2023-01-09T08:16:40.846Z,995.48
2023-01-09T08:17:40.852Z,995.53
2023-01-09T08:18:40.868Z,995.45
2023-01-09T08:19:40.868Z,995.48
2023-01-09T08:20:40.799Z,995.51
2023-01-09T08:21:40.835Z,995.46
2023-01-09T08:22:40.851Z,995.42
2023-01-09T08:23:40.760Z,995.46
2023-01-09T08:24:40.800Z,995.48
2023-01-09T08:25:40.774Z,995.49
2023-01-09T08:26:40.746Z,995.51
2023-01-09T08:27:40.740Z,995.58
2023-01-09T08:28:40.718Z,995.55
2023-01-09T08:29:40.692Z,995.56
2023-01-09T08:30:40.696Z,995.53
2023-01-09T08:31:40.740Z,995.59
2023-01-09T08:32:40.666Z,995.50
2023-01-09T08:33:40.742Z,995.59
2023-01-09T08:34:40.707Z,995.56
2023-01-09T08:35:40.612Z,995.52
2023-01-09T08:36:40.608Z,995.64
2023-01-09T08:37:40.588Z,995.51
2023-01-09T08:38:40.598Z,995.50
2023-01-09T08:39:40.558Z,995.53
2023-01-09T08:40:40.590Z,995.55
2023-01-09T08:41:40.535Z,995.57
2023-01-09T08:42:40.547Z,995.59
2023-01-09T08:43:40.535Z,995.56
2023-01-09T08:44:40.524Z,995.58
2023-01-09T08:45:40.538Z,995.57
2023-01-09T08:46:40.536Z,995.60
2023-01-09T08:47:40.508Z,995.64
2023-01-09T08:48:40.428Z,995.60
2023-01-09T08:49:40.447Z,995.57
2023-01-09T08:50:40.431Z,995.59
2023-01-09T08:51:40.410Z,995.62
2023-01-09T08:52:40.409Z,995.64
2023-01-09T08:53:40.386Z,995.71
2023-01-09T08:54:40.376Z,995.72
2023-01-09T08:55:40.384Z,995.77
2023-01-09T08:56:40.335Z,995.76
2023-01-09T08:57:40.384Z,995.81
2023-01-09T08:58:40.321Z,995.78
2023-01-09T08:59:40.337Z,995.84
2023-01-09T09:00:40.291Z,995.91
2023-01-09T09:01:40.309Z,995.89
2023-01-09T09:02:40.328Z,995.89
2023-01-09T09:03:40.281Z,995.87
2023-01-09T09:04:40.251Z,995.84
2023-01-09T09:05:40.228Z,995.86
2023-01-09T09:06:40.219Z,995.95
2023-01-09T09:07:40.194Z,995.92
2023-01-09T09:08:40.226Z,995.97
2023-01-09T09:09:40.177Z,995.95
2023-01-09T09:10:40.158Z,995.95
2023-01-09T09:11:40.169Z,995.96
2023-01-09T09:12:40.152Z,995.93
2023-01-09T09:13:40.133Z,995.97
2023-01-09T09:14:40.120Z,996.00
2023-01-09T09:15:41.164Z,996.04
2023-01-09T09:16:40.076Z,996.08
2023-01-09T09:17:40.101Z,996.13
2023-01-09T09:18:40.049Z,996.03
2023-01-09T09:19:40.099Z,995.99
2023-01-09T09:20:40.014Z,996.08
2023-01-09T09:21:40.046Z,996.07
2023-01-09T09:22:39.988Z,996.05
2023-01-09T09:23:39.992Z,996.10
2023-01-09T09:24:39.999Z,996.18
2023-01-09T09:25:40.014Z,995.95
2023-01-09T09:26:40.029Z,996.12
2023-01-09T09:27:39.941Z,996.17
2023-01-09T09:28:39.938Z,996.08
2023-01-09T09:29:39.956Z,996.07
2023-01-09T09:30:39.956Z,996.17
2023-01-09T09:31:39.959Z,996.10
2023-01-09T09:32:39.886Z,996.23
2023-01-09T09:33:39.890Z,996.16
2023-01-09T09:34:39.942Z,996.09
2023-01-09T09:35:39.847Z,996.15
2023-01-09T09:36:39.878Z,996.17
2023-01-09T09:37:39.826Z,996.15
2023-01-09T09:38:39.834Z,996.14
2023-01-09T09:39:39.807Z,996.20
2023-01-09T09:40:39.785Z,996.28
2023-01-09T09:41:39.787Z,996.26
2023-01-09T09:42:39.768Z,996.33
2023-01-09T09:43:40.543Z,996.37
2023-01-09T09:44:43.682Z,996.33
2023-01-09T09:45:40.706Z,996.30
2023-01-09T09:46:39.752Z,996.34
2023-01-09T09:47:39.658Z,996.41
2023-01-09T09:48:39.666Z,996.35
2023-01-09T09:49:39.715Z,996.37
2023-01-09T09:50:39.662Z,996.35
2023-01-09T09:51:39.628Z,996.40
2023-01-09T09:52:39.607Z,996.43
2023-01-09T09:53:39.623Z,996.45
2023-01-09T09:54:39.638Z,996.47
2023-01-09T09:55:39.564Z,996.41
2023-01-09T09:56:39.607Z,996.58
2023-01-09T09:57:39.534Z,996.50
2023-01-09T09:58:39.534Z,996.50
2023-01-09T09:59:39.534Z,996.55
2023-01-09T10:00:39.540Z,996.65
2023-01-09T10:01:39.505Z,996.55
2023-01-09T10:02:39.556Z,996.61
2023-01-09T10:03:39.555Z,996.63
2023-01-09T10:04:39.471Z,996.58
2023-01-09T10:05:39.459Z,996.59
2023-01-09T10:06:39.452Z,996.67
2023-01-09T10:07:40.587Z,996.61
2023-01-09T10:08:39.457Z,996.72
2023-01-09T10:09:39.399Z,996.78
2023-01-09T10:10:39.438Z,996.69
2023-01-09T10:11:40.517Z,996.76
2023-01-09T10:12:39.430Z,996.75
2023-01-09T10:13:39.322Z,996.76
2023-01-09T10:14:39.368Z,996.75
2023-01-09T10:15:39.339Z,996.67
2023-01-09T10:16:39.360Z,996.65
2023-01-09T10:17:39.292Z,996.73
2023-01-09T10:18:39.293Z,996.70
2023-01-09T10:19:39.253Z,996.72
2023-01-09T10:20:39.296Z,996.72
2023-01-09T10:21:39.335Z,996.75
2023-01-09T10:22:39.232Z,996.70
2023-01-09T10:23:39.227Z,996.78
2023-01-09T10:24:39.237Z,996.75
2023-01-09T10:25:39.190Z,996.66
2023-01-09T10:26:39.213Z,996.69
2023-01-09T10:28:56.673Z,996.64
2023-01-09T10:29:56.599Z,996.62
2023-01-09T10:30:56.596Z,996.59
2023-01-09T10:31:57.523Z,996.61
2023-01-09T10:32:56.646Z,996.59
2023-01-09T10:33:56.548Z,996.55
2023-01-09T10:34:56.574Z,996.56
2023-01-09T10:35:56.547Z,996.61
2023-01-09T10:36:56.580Z,996.64
2023-01-09T10:37:58.320Z,996.57
2023-01-09T10:38:56.491Z,996.53
2023-01-09T10:39:56.513Z,996.61
2023-01-09T10:41:00.742Z,996.59
2023-01-09T10:41:57.448Z,996.62
2023-01-09T10:42:56.469Z,996.63
2023-01-09T10:43:56.426Z,996.57
2023-01-09T10:44:56.468Z,996.54
2023-01-09T10:45:56.432Z,996.54
2023-01-09T10:46:56.503Z,996.60
2023-01-09T10:47:56.401Z,996.66
2023-01-09T10:48:56.461Z,996.61
2023-01-09T10:49:56.365Z,996.56
2023-01-09T10:50:56.340Z,996.58
2023-01-09T10:51:56.350Z,996.57
2023-01-09T10:52:56.350Z,996.62
2023-01-09T10:53:56.332Z,996.55
2023-01-09T10:54:56.305Z,996.59
2023-01-09T10:55:56.309Z,996.67
2023-01-09T10:56:56.312Z,996.55
2023-01-09T10:57:56.248Z,996.59
2023-01-09T10:58:56.294Z,996.53
2023-01-09T10:59:56.210Z,996.58
2023-01-09T11:00:56.245Z,996.62
2023-01-09T11:01:56.283Z,996.54
2023-01-09T11:02:56.227Z,996.60
2023-01-09T11:03:56.207Z,996.56
2023-01-09T11:04:56.186Z,996.59
2023-01-09T11:05:56.158Z,996.59
2023-01-09T11:06:56.166Z,996.54
2023-01-09T11:07:56.115Z,996.52
2023-01-09T11:08:56.167Z,996.52
2023-01-09T11:09:56.125Z,996.50
2023-01-09T11:10:56.131Z,996.51
2023-01-09T11:11:56.065Z,996.56
2023-01-09T11:12:56.117Z,996.54
2023-01-09T11:13:56.141Z,996.47
2023-01-09T11:14:56.061Z,996.54
2023-01-09T11:15:56.093Z,996.55
2023-01-09T11:16:56.024Z,996.60
2023-01-09T11:17:55.984Z,996.54
2023-01-09T11:18:56.050Z,996.58
2023-01-09T11:19:56.006Z,996.60
2023-01-09T11:20:55.983Z,996.62
2023-01-09T11:21:55.981Z,996.69
2023-01-09T11:22:55.944Z,996.66
2023-01-09T11:23:55.964Z,996.64
2023-01-09T11:24:55.912Z,996.72
2023-01-09T11:25:56.132Z,996.70
2023-01-09T11:26:55.912Z,996.70
2023-01-09T11:27:55.938Z,996.88
2023-01-09T11:28:55.888Z,996.68
2023-01-09T11:29:55.867Z,996.68
2023-01-09T11:30:55.822Z,996.81
2023-01-09T11:31:55.802Z,996.73
2023-01-09T11:32:55.917Z,996.70
2023-01-09T11:33:55.806Z,996.76
2023-01-09T11:34:55.791Z,996.85
2023-01-09T11:35:55.790Z,996.77
2023-01-09T11:36:55.762Z,996.81
2023-01-09T11:37:55.733Z,996.80
2023-01-09T11:38:55.719Z,996.93
2023-01-09T11:39:55.752Z,996.91
2023-01-09T11:40:55.704Z,996.98
2023-01-09T11:41:55.706Z,996.95
2023-01-09T11:42:55.717Z,996.95
2023-01-09T11:43:55.659Z,997.00
2023-01-09T11:44:55.693Z,997.04
2023-01-09T11:46:01.050Z,996.99
2023-01-09T11:46:56.655Z,996.98
2023-01-09T11:47:55.645Z,997.06
2023-01-09T11:48:55.686Z,997.03
2023-01-09T11:49:55.605Z,997.00
2023-01-09T11:50:55.605Z,997.09
2023-01-09T11:51:55.575Z,996.96
2023-01-09T11:52:55.588Z,997.00
2023-01-09T11:53:55.560Z,996.99
2023-01-09T11:54:55.538Z,997.00
2023-01-09T11:55:55.582Z,997.02
2023-01-09T11:56:55.497Z,997.08
2023-01-09T11:57:55.575Z,997.07
2023-01-09T11:58:55.467Z,997.01
2023-01-09T11:59:55.476Z,997.06
2023-01-09T12:00:55.503Z,997.11
2023-01-09T12:01:55.483Z,997.04
2023-01-09T12:02:55.481Z,997.04
2023-01-09T12:03:55.423Z,997.09
2023-01-09T12:04:55.427Z,997.13
2023-01-09T12:05:55.401Z,997.11
2023-01-09T12:06:55.408Z,997.21
2023-01-09T12:07:55.397Z,997.05
2023-01-09T12:08:55.376Z,997.17
2023-01-09T12:09:55.386Z,997.05
2023-01-09T12:10:55.353Z,997.15
2023-01-09T12:11:55.330Z,997.18
2023-01-09T12:12:55.291Z,997.20
2023-01-09T12:13:55.299Z,997.20
2023-01-09T12:14:55.301Z,997.24
2023-01-09T12:15:55.244Z,997.24
2023-01-09T12:16:55.253Z,997.32
2023-01-09T12:17:55.230Z,997.29
2023-01-09T12:18:55.222Z,997.28
2023-01-09T12:19:55.195Z,997.30
2023-01-09T12:20:55.224Z,997.33
2023-01-09T12:21:55.226Z,997.44
2023-01-09T12:22:55.195Z,997.30
2023-01-09T12:23:55.188Z,997.33
2023-01-09T12:24:55.146Z,997.34
2023-01-09T12:25:55.140Z,997.36
2023-01-09T12:26:55.140Z,997.39
2023-01-09T12:27:58.925Z,997.36
2023-01-09T12:28:55.092Z,997.42
2023-01-09T12:29:55.066Z,997.46